sensor_id;sensor_type;location;lat;lon;timestamp;pressure;altitude;pressure_sealevel;temperature;humidity
5753;BME280;2901;42.140;24.760;2022-10-22T00:02:04;100458.50;;;8.85;100.00
5753;BME280;2901;42.140;24.760;2022-10-22T00:04:31;100449.84;;;8.82;100.00
5753;BME280;2901;42.140;24.760;2022-10-22T00:06:57;100442.06;;;8.79;100.00
5753;BME280;2901;42.140;24.760;2022-10-22T00:09:22;100443.84;;;8.86;100.00
5753;BME280;2901;42.140;24.760;2022-10-22T00:11:48;100450.84;;;8.93;100.00
5753;BME280;2901;42.140;24.760;2022-10-22T00:14:13;100448.28;;;8.93;100.00
5753;BME280;2901;42.140;24.760;2022-10-22T00:16:39;100441.28;;;8.86;100.00
5753;BME280;2901;42.140;24.760;2022-10-22T00:19:05;100437.78;;;8.81;100.00
5753;BME280;2901;42.140;24.760;2022-10-22T00:21:30;100430.91;;;8.83;100.00
5753;BME280;2901;42.140;24.760;2022-10-22T00:23:55;100424.94;;;8.85;100.00
5753;BME280;2901;42.140;24.760;2022-10-22T00:26:21;100424.06;;;8.85;100.00
5753;BME280;2901;42.140;24.760;2022-10-22T00:28:47;100416.38;;;8.90;100.00
5753;BME280;2901;42.140;24.760;2022-10-22T00:31:12;100418.97;;;8.91;100.00
5753;BME280;2901;42.140;24.760;2022-10-22T00:33:40;100420.81;;;8.98;100.00
5753;BME280;2901;42.140;24.760;2022-10-22T00:36:06;100412.28;;;9.02;100.00
5753;BME280;2901;42.140;24.760;2022-10-22T00:38:32;100419.22;;;9.09;100.00
5753;BME280;2901;42.140;24.760;2022-10-22T00:40:57;100422.72;;;9.11;100.00
5753;BME280;2901;42.140;24.760;2022-10-22T00:43:22;100410.66;;;9.10;100.00
5753;BME280;2901;42.140;24.760;2022-10-22T00:45:48;100410.56;;;9.04;100.00
5753;BME280;2901;42.140;24.760;2022-10-22T00:48:16;100404.44;;;8.99;100.00
5753;BME280;2901;42.140;24.760;2022-10-22T00:50:52;100402.78;;;9.03;100.00
5753;BME280;2901;42.140;24.760;2022-10-22T00:53:25;100403.56;;;8.97;100.00
5753;BME280;2901;42.140;24.760;2022-10-22T00:55:53;100406.81;;;8.84;100.00
5753;BME280;2901;42.140;24.760;2022-10-22T00:58:23;100405.84;;;8.77;100.00
5753;BME280;2901;42.140;24.760;2022-10-22T01:00:49;100402.34;;;8.72;100.00
5753;BME280;2901;42.140;24.760;2022-10-22T01:03:15;100401.31;;;8.63;100.00
5753;BME280;2901;42.140;24.760;2022-10-22T01:06:00;100407.34;;;8.63;100.00
5753;BME280;2901;42.140;24.760;2022-10-22T01:14:03;100407.25;;;8.57;100.00
5753;BME280;2901;42.140;24.760;2022-10-22T01:20:00;100396.94;;;8.57;100.00
5753;BME280;2901;42.140;24.760;2022-10-22T01:25:08;100385.59;;;8.48;100.00
5753;BME280;2901;42.140;24.760;2022-10-22T01:30:13;100395.91;;;8.48;100.00
5753;BME280;2901;42.140;24.760;2022-10-22T01:32:46;100391.72;;;8.54;100.00
5753;BME280;2901;42.140;24.760;2022-10-22T01:35:18;100392.69;;;8.59;100.00
5753;BME280;2901;42.140;24.760;2022-10-22T01:37:49;100392.66;;;8.58;100.00
5753;BME280;2901;42.140;24.760;2022-10-22T01:40:18;100393.53;;;8.60;100.00
5753;BME280;2901;42.140;24.760;2022-10-22T01:42:55;100388.28;;;8.54;100.00
5753;BME280;2901;42.140;24.760;2022-10-22T01:45:21;100402.09;;;8.57;100.00
5753;BME280;2901;42.140;24.760;2022-10-22T01:50:31;100387.16;;;8.38;100.00
5753;BME280;2901;42.140;24.760;2022-10-22T01:53:20;100387.03;;;8.30;100.00
5753;BME280;2901;42.140;24.760;2022-10-22T01:58:51;100385.16;;;8.23;100.00
5753;BME280;2901;42.140;24.760;2022-10-22T02:04:22;100390.06;;;8.08;100.00
5753;BME280;2901;42.140;24.760;2022-10-22T02:06:51;100387.44;;;8.07;100.00
5753;BME280;2901;42.140;24.760;2022-10-22T02:09:20;100389.94;;;8.02;100.00
5753;BME280;2901;42.140;24.760;2022-10-22T02:11:48;100388.09;;;7.95;100.00
5753;BME280;2901;42.140;24.760;2022-10-22T02:14:14;100396.56;;;7.88;100.00
5753;BME280;2901;42.140;24.760;2022-10-22T02:16:43;100401.72;;;7.88;100.00
5753;BME280;2901;42.140;24.760;2022-10-22T02:19:23;100392.31;;;7.92;100.00
5753;BME280;2901;42.140;24.760;2022-10-22T02:21:49;100391.50;;;7.93;100.00
5753;BME280;2901;42.140;24.760;2022-10-22T02:24:16;100386.28;;;7.91;100.00
5753;BME280;2901;42.140;24.760;2022-10-22T02:29:43;100384.63;;;7.93;100.00
5753;BME280;2901;42.140;24.760;2022-10-22T02:32:15;100388.88;;;7.91;100.00
5753;BME280;2901;42.140;24.760;2022-10-22T02:34:43;100397.53;;;7.95;100.00
5753;BME280;2901;42.140;24.760;2022-10-22T02:37:10;100390.56;;;7.91;100.00
5753;BME280;2901;42.140;24.760;2022-10-22T02:39:37;100390.63;;;7.92;100.00
5753;BME280;2901;42.140;24.760;2022-10-22T02:42:03;100393.16;;;7.91;100.00
5753;BME280;2901;42.140;24.760;2022-10-22T02:44:29;100394.06;;;7.93;100.00
5753;BME280;2901;42.140;24.760;2022-10-22T02:46:54;100400.16;;;7.98;100.00
5753;BME280;2901;42.140;24.760;2022-10-22T02:49:20;100388.25;;;8.04;100.00
5753;BME280;2901;42.140;24.760;2022-10-22T02:51:45;100392.63;;;8.08;100.00
5753;BME280;2901;42.140;24.760;2022-10-22T02:54:11;100394.44;;;8.12;100.00
5753;BME280;2901;42.140;24.760;2022-10-22T02:56:36;100387.63;;;8.16;100.00
5753;BME280;2901;42.140;24.760;2022-10-22T02:59:02;100378.03;;;8.10;100.00
5753;BME280;2901;42.140;24.760;2022-10-22T03:01:27;100391.06;;;8.16;100.00
5753;BME280;2901;42.140;24.760;2022-10-22T03:03:53;100388.53;;;8.19;100.00
5753;BME280;2901;42.140;24.760;2022-10-22T03:06:18;100385.09;;;8.20;100.00
5753;BME280;2901;42.140;24.760;2022-10-22T03:08:44;100390.34;;;8.25;100.00
5753;BME280;2901;42.140;24.760;2022-10-22T03:11:09;100394.66;;;8.26;100.00
5753;BME280;2901;42.140;24.760;2022-10-22T03:13:35;100395.53;;;8.26;100.00
5753;BME280;2901;42.140;24.760;2022-10-22T03:16:00;100393.81;;;8.25;100.00
5753;BME280;2901;42.140;24.760;2022-10-22T03:18:26;100395.63;;;8.29;100.00
5753;BME280;2901;42.140;24.760;2022-10-22T03:21:19;100388.81;;;8.33;100.00
5753;BME280;2901;42.140;24.760;2022-10-22T03:23:48;100387.13;;;8.35;100.00
5753;BME280;2901;42.140;24.760;2022-10-22T03:26:14;100387.06;;;8.32;100.00
5753;BME280;2901;42.140;24.760;2022-10-22T03:28:39;100381.91;;;8.33;100.00
5753;BME280;2901;42.140;24.760;2022-10-22T03:31:06;100384.44;;;8.29;100.00
5753;BME280;2901;42.140;24.760;2022-10-22T03:33:31;100381.88;;;8.30;100.00
5753;BME280;2901;42.140;24.760;2022-10-22T03:35:57;100381.91;;;8.32;100.00
5753;BME280;2901;42.140;24.760;2022-10-22T03:38:23;100375.88;;;8.31;100.00
5753;BME280;2901;42.140;24.760;2022-10-22T03:40:49;100379.38;;;8.35;100.00
5753;BME280;2901;42.140;24.760;2022-10-22T03:43:15;100380.28;;;8.39;100.00
5753;BME280;2901;42.140;24.760;2022-10-22T03:45:41;100376.00;;;8.41;100.00
5753;BME280;2901;42.140;24.760;2022-10-22T03:48:06;100383.75;;;8.41;100.00
5753;BME280;2901;42.140;24.760;2022-10-22T03:50:32;100387.19;;;8.40;100.00
5753;BME280;2901;42.140;24.760;2022-10-22T03:52:57;100378.44;;;8.31;100.00
5753;BME280;2901;42.140;24.760;2022-10-22T03:55:23;100387.06;;;8.33;100.00
5753;BME280;2901;42.140;24.760;2022-10-22T03:57:49;100380.25;;;8.36;100.00
5753;BME280;2901;42.140;24.760;2022-10-22T04:00:15;100382.84;;;8.37;100.00
5753;BME280;2901;42.140;24.760;2022-10-22T04:02:40;100382.78;;;8.34;100.00
5753;BME280;2901;42.140;24.760;2022-10-22T04:05:06;100380.19;;;8.34;100.00
5753;BME280;2901;42.140;24.760;2022-10-22T04:07:31;100386.22;;;8.33;100.00
5753;BME280;2901;42.140;24.760;2022-10-22T04:09:57;100387.06;;;8.33;100.00
5753;BME280;2901;42.140;24.760;2022-10-22T04:12:22;100395.72;;;8.36;100.00
5753;BME280;2901;42.140;24.760;2022-10-22T04:14:48;100383.66;;;8.33;100.00
5753;BME280;2901;42.140;24.760;2022-10-22T04:17:13;100393.97;;;8.33;100.00
5753;BME280;2901;42.140;24.760;2022-10-22T04:19:39;100394.81;;;8.32;100.00
5753;BME280;2901;42.140;24.760;2022-10-22T04:22:04;100396.50;;;8.31;100.00
5753;BME280;2901;42.140;24.760;2022-10-22T04:24:31;100390.38;;;8.26;100.00
5753;BME280;2901;42.140;24.760;2022-10-22T04:26:56;100394.59;;;8.21;100.00
5753;BME280;2901;42.140;24.760;2022-10-22T04:29:22;100396.19;;;8.15;100.00
5753;BME280;2901;42.140;24.760;2022-10-22T04:31:48;100398.63;;;8.07;100.00
5753;BME280;2901;42.140;24.760;2022-10-22T04:34:13;100397.56;;;7.96;100.00
5753;BME280;2901;42.140;24.760;2022-10-22T04:36:39;100397.47;;;7.90;100.00
5753;BME280;2901;42.140;24.760;2022-10-22T04:39:05;100401.69;;;7.87;100.00
5753;BME280;2901;42.140;24.760;2022-10-22T04:41:33;100404.19;;;7.82;100.00
5753;BME280;2901;42.140;24.760;2022-10-22T04:44:00;100416.03;;;7.74;100.00
5753;BME280;2901;42.140;24.760;2022-10-22T04:46:28;100405.59;;;7.66;100.00
5753;BME280;2901;42.140;24.760;2022-10-22T04:48:55;100391.78;;;7.64;100.00
5753;BME280;2901;42.140;24.760;2022-10-22T04:51:21;100390.19;;;7.71;100.00
5753;BME280;2901;42.140;24.760;2022-10-22T04:53:47;100385.09;;;7.72;100.00
5753;BME280;2901;42.140;24.760;2022-10-22T04:56:15;100394.53;;;7.70;100.00
5753;BME280;2901;42.140;24.760;2022-10-22T04:58:42;100386.78;;;7.70;100.00
5753;BME280;2901;42.140;24.760;2022-10-22T05:01:10;100382.63;;;7.77;100.00
5753;BME280;2901;42.140;24.760;2022-10-22T05:03:35;100382.69;;;7.81;100.00
5753;BME280;2901;42.140;24.760;2022-10-22T05:06:01;100373.19;;;7.80;100.00
5753;BME280;2901;42.140;24.760;2022-10-22T05:08:26;100378.25;;;7.74;100.00
5753;BME280;2901;42.140;24.760;2022-10-22T05:10:52;100375.56;;;7.68;100.00
5753;BME280;2901;42.140;24.760;2022-10-22T05:13:17;100371.28;;;7.69;100.00
5753;BME280;2901;42.140;24.760;2022-10-22T05:15:42;100369.63;;;7.72;100.00
5753;BME280;2901;42.140;24.760;2022-10-22T05:18:08;100368.03;;;7.79;100.00
5753;BME280;2901;42.140;24.760;2022-10-22T05:20:33;100368.91;;;7.79;100.00
5753;BME280;2901;42.140;24.760;2022-10-22T05:22:58;100369.94;;;7.91;100.00
5753;BME280;2901;42.140;24.760;2022-10-22T05:25:24;100368.38;;;7.99;100.00
5753;BME280;2901;42.140;24.760;2022-10-22T05:27:49;100368.59;;;8.09;100.00
5753;BME280;2901;42.140;24.760;2022-10-22T05:30:15;100373.94;;;8.21;100.00
5753;BME280;2901;42.140;24.760;2022-10-22T05:32:40;100374.03;;;8.27;100.00
5753;BME280;2901;42.140;24.760;2022-10-22T05:35:06;100382.69;;;8.28;100.00
5753;BME280;2901;42.140;24.760;2022-10-22T05:37:31;100383.66;;;8.34;100.00
5753;BME280;2901;42.140;24.760;2022-10-22T05:39:56;100385.91;;;8.18;100.00
5753;BME280;2901;42.140;24.760;2022-10-22T05:42:22;100381.72;;;8.23;100.00
5753;BME280;2901;42.140;24.760;2022-10-22T05:44:47;100372.41;;;8.29;100.00
5753;BME280;2901;42.140;24.760;2022-10-22T05:47:12;100375.19;;;8.42;100.00
5753;BME280;2901;42.140;24.760;2022-10-22T05:49:38;100371.94;;;8.55;100.00
5753;BME280;2901;42.140;24.760;2022-10-22T05:52:03;100374.72;;;8.67;100.00
5753;BME280;2901;42.140;24.760;2022-10-22T05:54:29;100362.00;;;8.80;100.00
5753;BME280;2901;42.140;24.760;2022-10-22T05:56:54;100362.25;;;8.97;100.00
5753;BME280;2901;42.140;24.760;2022-10-22T05:59:19;100372.84;;;9.15;100.00
5753;BME280;2901;42.140;24.760;2022-10-22T06:01:45;100369.59;;;9.33;99.80
5753;BME280;2901;42.140;24.760;2022-10-22T06:04:12;100361.97;;;9.45;98.51
5753;BME280;2901;42.140;24.760;2022-10-22T06:06:46;100366.50;;;9.63;98.72
5753;BME280;2901;42.140;24.760;2022-10-22T06:11:43;100361.69;;;9.96;97.57
5753;BME280;2901;42.140;24.760;2022-10-22T06:14:09;100364.47;;;10.14;95.86
5753;BME280;2901;42.140;24.760;2022-10-22T06:16:34;100360.28;;;10.28;94.49
5753;BME280;2901;42.140;24.760;2022-10-22T06:19:00;100349.97;;;10.30;95.04
5753;BME280;2901;42.140;24.760;2022-10-22T06:21:26;100356.19;;;10.50;93.41
5753;BME280;2901;42.140;24.760;2022-10-22T06:23:54;100363.97;;;10.56;92.65
5753;BME280;2901;42.140;24.760;2022-10-22T06:26:20;100360.63;;;10.74;91.81
5753;BME280;2901;42.140;24.760;2022-10-22T06:28:45;100359.00;;;10.88;91.11
5753;BME280;2901;42.140;24.760;2022-10-22T06:31:11;100370.25;;;10.90;90.47
5753;BME280;2901;42.140;24.760;2022-10-22T06:33:36;100374.56;;;10.91;89.41
5753;BME280;2901;42.140;24.760;2022-10-22T06:38:33;100371.00;;;10.72;88.89
5753;BME280;2901;42.140;24.760;2022-10-22T06:41:07;100378.78;;;10.77;89.98
5753;BME280;2901;42.140;24.760;2022-10-22T06:43:33;100378.06;;;10.93;89.25
5753;BME280;2901;42.140;24.760;2022-10-22T06:46:01;100378.19;;;11.23;88.17
5753;BME280;2901;42.140;24.760;2022-10-22T06:48:27;100374.88;;;11.52;86.85
5753;BME280;2901;42.140;24.760;2022-10-22T06:50:53;100379.31;;;11.80;87.05
5753;BME280;2901;42.140;24.760;2022-10-22T06:53:19;100376.78;;;12.07;85.00
5753;BME280;2901;42.140;24.760;2022-10-22T06:55:44;100376.78;;;12.09;83.40
5753;BME280;2901;42.140;24.760;2022-10-22T06:58:09;100375.88;;;11.90;83.62
5753;BME280;2901;42.140;24.760;2022-10-22T07:00:35;100392.34;;;11.95;83.50
5753;BME280;2901;42.140;24.760;2022-10-22T07:03:00;100403.56;;;11.86;83.15
5753;BME280;2901;42.140;24.760;2022-10-22T07:05:25;100400.97;;;11.82;83.72
5753;BME280;2901;42.140;24.760;2022-10-22T07:07:51;100398.41;;;11.91;84.12
5753;BME280;2901;42.140;24.760;2022-10-22T07:10:16;100410.53;;;11.92;84.96
5753;BME280;2901;42.140;24.760;2022-10-22T07:12:41;100400.94;;;11.80;84.20
5753;BME280;2901;42.140;24.760;2022-10-22T07:15:07;100398.38;;;11.88;84.64
5753;BME280;2901;42.140;24.760;2022-10-22T07:17:33;100388.03;;;12.03;84.43
5753;BME280;2901;42.140;24.760;2022-10-22T07:19:58;100397.56;;;12.04;83.60
5753;BME280;2901;42.140;24.760;2022-10-22T07:22:23;100391.47;;;11.93;83.09
5753;BME280;2901;42.140;24.760;2022-10-22T07:24:49;100388.00;;;11.91;84.63
5753;BME280;2901;42.140;24.760;2022-10-22T07:27:14;100392.38;;;12.10;83.80
5753;BME280;2901;42.140;24.760;2022-10-22T07:29:40;100383.72;;;12.14;83.13
5753;BME280;2901;42.140;24.760;2022-10-22T07:32:05;100383.69;;;11.93;82.83
5753;BME280;2901;42.140;24.760;2022-10-22T07:34:31;100383.69;;;11.94;83.74
5753;BME280;2901;42.140;24.760;2022-10-22T07:36:56;100371.59;;;12.04;83.85
5753;BME280;2901;42.140;24.760;2022-10-22T07:39:22;100383.72;;;12.26;82.93
5753;BME280;2901;42.140;24.760;2022-10-22T07:41:49;100379.44;;;12.34;82.54
5753;BME280;2901;42.140;24.760;2022-10-22T07:44:15;100384.59;;;12.45;82.47
5753;BME280;2901;42.140;24.760;2022-10-22T07:46:40;100388.94;;;12.64;82.40
5753;BME280;2901;42.140;24.760;2022-10-22T07:49:06;100387.22;;;12.71;81.98
5753;BME280;2901;42.140;24.760;2022-10-22T07:51:31;100396.72;;;12.73;81.40
5753;BME280;2901;42.140;24.760;2022-10-22T07:53:57;100390.66;;;12.65;81.95
5753;BME280;2901;42.140;24.760;2022-10-22T07:56:22;100390.66;;;12.65;82.29
5753;BME280;2901;42.140;24.760;2022-10-22T07:58:47;100373.34;;;12.73;82.26
5753;BME280;2901;42.140;24.760;2022-10-22T08:01:13;100378.53;;;12.87;82.50
5753;BME280;2901;42.140;24.760;2022-10-22T08:03:38;100386.31;;;13.10;82.35
5753;BME280;2901;42.140;24.760;2022-10-22T08:06:04;100371.50;;;13.28;80.35
5753;BME280;2901;42.140;24.760;2022-10-22T08:08:30;100375.00;;;13.23;80.87
5753;BME280;2901;42.140;24.760;2022-10-22T08:10:56;100365.41;;;13.35;80.35
5753;BME280;2901;42.140;24.760;2022-10-22T08:13:23;100366.25;;;13.43;79.50
5753;BME280;2901;42.140;24.760;2022-10-22T08:15:48;100354.97;;;13.46;78.93
5753;BME280;2901;42.140;24.760;2022-10-22T08:18:14;100371.28;;;13.74;78.45
5753;BME280;2901;42.140;24.760;2022-10-22T08:20:40;100358.28;;;13.75;77.37
5753;BME280;2901;42.140;24.760;2022-10-22T08:23:05;100364.31;;;13.83;77.39
5753;BME280;2901;42.140;24.760;2022-10-22T08:25:31;100367.72;;;13.90;76.50
5753;BME280;2901;42.140;24.760;2022-10-22T08:27:56;100369.31;;;14.14;77.17
5753;BME280;2901;42.140;24.760;2022-10-22T08:30:22;100369.22;;;14.35;75.72
5753;BME280;2901;42.140;24.760;2022-10-22T08:32:47;100366.59;;;14.33;74.73
5753;BME280;2901;42.140;24.760;2022-10-22T08:35:13;100366.53;;;14.44;74.59
5753;BME280;2901;42.140;24.760;2022-10-22T08:37:38;100358.56;;;14.61;74.30
5753;BME280;2901;42.140;24.760;2022-10-22T08:40:04;100361.16;;;14.59;73.75
5753;BME280;2901;42.140;24.760;2022-10-22T08:42:40;100359.47;;;14.58;74.22
5753;BME280;2901;42.140;24.760;2022-10-22T08:50:33;100355.63;;;14.92;73.23
5753;BME280;2901;42.140;24.760;2022-10-22T08:53:03;100350.94;;;15.22;72.22
5753;BME280;2901;42.140;24.760;2022-10-22T08:55:29;100340.38;;;15.34;71.63
5753;BME280;2901;42.140;24.760;2022-10-22T08:58:02;100336.63;;;15.57;70.79
5753;BME280;2901;42.140;24.760;2022-10-22T09:00:34;100332.16;;;15.67;69.92
5753;BME280;2901;42.140;24.760;2022-10-22T09:03:35;100329.97;;;15.96;69.29
5753;BME280;2901;42.140;24.760;2022-10-22T09:06:23;100321.69;;;16.25;68.71
5753;BME280;2901;42.140;24.760;2022-10-22T09:08:50;100326.38;;;16.58;67.29
5753;BME280;2901;42.140;24.760;2022-10-22T09:11:31;100316.50;;;16.74;66.36
5753;BME280;2901;42.140;24.760;2022-10-22T09:13:58;100309.94;;;16.98;65.30
5753;BME280;2901;42.140;24.760;2022-10-22T09:24:37;100301.91;;;17.07;64.32
5753;BME280;2901;42.140;24.760;2022-10-22T09:27:38;100294.06;;;17.48;62.98
5753;BME280;2901;42.140;24.760;2022-10-22T09:30:04;100290.44;;;17.92;61.64
5753;BME280;2901;42.140;24.760;2022-10-22T09:32:30;100280.97;;;18.22;60.50
5753;BME280;2901;42.140;24.760;2022-10-22T09:34:57;100292.97;;;18.32;59.18
5753;BME280;2901;42.140;24.760;2022-10-22T09:37:28;100297.91;;;18.09;59.60
5753;BME280;2901;42.140;24.760;2022-10-22T09:39:54;100291.00;;;18.06;59.88
5753;BME280;2901;42.140;24.760;2022-10-22T09:42:21;100293.19;;;18.23;59.69
5753;BME280;2901;42.140;24.760;2022-10-22T09:44:57;100274.69;;;18.29;59.31
5753;BME280;2901;42.140;24.760;2022-10-22T09:47:49;100268.97;;;18.47;58.71
5753;BME280;2901;42.140;24.760;2022-10-22T09:55:42;100254.03;;;18.17;59.16
5753;BME280;2901;42.140;24.760;2022-10-22T09:58:11;100239.97;;;18.20;58.84
5753;BME280;2901;42.140;24.760;2022-10-22T10:00:38;100245.31;;;18.15;59.73
5753;BME280;2901;42.140;24.760;2022-10-22T10:03:04;100241.81;;;18.16;59.08
5753;BME280;2901;42.140;24.760;2022-10-22T10:05:33;100232.91;;;18.23;59.20
5753;BME280;2901;42.140;24.760;2022-10-22T10:08:07;100227.41;;;18.32;59.26
5753;BME280;2901;42.140;24.760;2022-10-22T10:10:46;100233.63;;;18.28;58.97
5753;BME280;2901;42.140;24.760;2022-10-22T10:15:51;100210.78;;;18.33;58.50
5753;BME280;2901;42.140;24.760;2022-10-22T10:23:57;100223.03;;;18.33;58.35
5753;BME280;2901;42.140;24.760;2022-10-22T10:26:35;100206.81;;;18.51;57.95
5753;BME280;2901;42.140;24.760;2022-10-22T10:29:26;100202.13;;;18.62;57.00
5753;BME280;2901;42.140;24.760;2022-10-22T10:37:45;100187.66;;;18.80;55.48
5753;BME280;2901;42.140;24.760;2022-10-22T10:42:52;100175.81;;;19.24;54.17
5753;BME280;2901;42.140;24.760;2022-10-22T10:53:50;100143.25;;;19.57;52.30
5753;BME280;2901;42.140;24.760;2022-10-22T10:56:46;100143.75;;;19.42;53.25
5753;BME280;2901;42.140;24.760;2022-10-22T11:07:40;100121.16;;;19.89;51.02
5753;BME280;2901;42.140;24.760;2022-10-22T11:10:21;100128.41;;;20.07;50.73
5753;BME280;2901;42.140;24.760;2022-10-22T11:12:52;100113.16;;;20.16;49.85
5753;BME280;2901;42.140;24.760;2022-10-22T11:15:24;100107.16;;;20.38;50.02
5753;BME280;2901;42.140;24.760;2022-10-22T11:17:55;100097.78;;;20.54;49.23
5753;BME280;2901;42.140;24.760;2022-10-22T11:23:32;100084.75;;;20.73;47.42
5753;BME280;2901;42.140;24.760;2022-10-22T11:26:00;100079.25;;;20.79;47.52
5753;BME280;2901;42.140;24.760;2022-10-22T11:28:55;100084.28;;;20.85;46.78
5753;BME280;2901;42.140;24.760;2022-10-22T11:31:23;100080.16;;;21.01;46.67
5753;BME280;2901;42.140;24.760;2022-10-22T11:34:05;100071.72;;;21.14;46.09
5753;BME280;2901;42.140;24.760;2022-10-22T11:36:37;100070.50;;;21.23;45.51
5753;BME280;2901;42.140;24.760;2022-10-22T11:39:03;100073.59;;;21.11;45.44
5753;BME280;2901;42.140;24.760;2022-10-22T11:41:32;100064.41;;;21.21;45.09
5753;BME280;2901;42.140;24.760;2022-10-22T11:46:45;100057.19;;;21.26;44.17
5753;BME280;2901;42.140;24.760;2022-10-22T11:51:41;100047.06;;;21.57;42.79
5753;BME280;2901;42.140;24.760;2022-10-22T11:54:30;100049.06;;;21.72;42.01
5753;BME280;2901;42.140;24.760;2022-10-22T11:57:19;100041.53;;;21.84;41.58
5753;BME280;2901;42.140;24.760;2022-10-22T12:02:44;100043.41;;;22.02;41.83
5753;BME280;2901;42.140;24.760;2022-10-22T12:05:39;100033.75;;;22.40;41.31
5753;BME280;2901;42.140;24.760;2022-10-22T12:08:14;100041.91;;;22.72;39.99
5753;BME280;2901;42.140;24.760;2022-10-22T12:10:54;100034.78;;;22.74;39.17
5753;BME280;2901;42.140;24.760;2022-10-22T12:13:57;100020.16;;;22.67;39.55
5753;BME280;2901;42.140;24.760;2022-10-22T12:16:28;100010.66;;;22.99;39.34
5753;BME280;2901;42.140;24.760;2022-10-22T12:21:42;100002.88;;;23.49;38.70
5753;BME280;2901;42.140;24.760;2022-10-22T12:24:13;100010.13;;;23.46;37.65
5753;BME280;2901;42.140;24.760;2022-10-22T12:26:39;100005.09;;;23.41;38.18
5753;BME280;2901;42.140;24.760;2022-10-22T12:29:10;100005.50;;;23.32;37.85
5753;BME280;2901;42.140;24.760;2022-10-22T12:31:38;100010.47;;;23.21;38.09
5753;BME280;2901;42.140;24.760;2022-10-22T12:34:04;99998.84;;;22.89;39.06
5753;BME280;2901;42.140;24.760;2022-10-22T12:36:32;99994.53;;;22.69;39.38
5753;BME280;2901;42.140;24.760;2022-10-22T12:39:11;99984.31;;;22.81;39.41
5753;BME280;2901;42.140;24.760;2022-10-22T12:41:38;99972.66;;;22.85;39.00
5753;BME280;2901;42.140;24.760;2022-10-22T12:44:04;99983.94;;;22.88;39.61
5753;BME280;2901;42.140;24.760;2022-10-22T12:46:32;99975.25;;;22.67;40.10
5753;BME280;2901;42.140;24.760;2022-10-22T12:48:59;99984.81;;;22.51;40.10
5753;BME280;2901;42.140;24.760;2022-10-22T12:51:26;99982.66;;;22.59;40.16
5753;BME280;2901;42.140;24.760;2022-10-22T12:53:53;99972.09;;;22.59;39.34
5753;BME280;2901;42.140;24.760;2022-10-22T12:56:25;99966.53;;;22.65;40.03
5753;BME280;2901;42.140;24.760;2022-10-22T12:59:00;99973.41;;;22.69;40.55
5753;BME280;2901;42.140;24.760;2022-10-22T13:01:36;99963.78;;;22.68;39.94
5753;BME280;2901;42.140;24.760;2022-10-22T13:06:43;99966.50;;;22.48;39.10
5753;BME280;2901;42.140;24.760;2022-10-22T13:09:19;99975.53;;;22.43;38.73
5753;BME280;2901;42.140;24.760;2022-10-22T13:12:01;99973.41;;;22.51;39.04
5753;BME280;2901;42.140;24.760;2022-10-22T13:14:31;99964.63;;;22.69;38.91
5753;BME280;2901;42.140;24.760;2022-10-22T13:19:51;99963.97;;;23.00;38.17
5753;BME280;2901;42.140;24.760;2022-10-22T13:22:58;99962.97;;;22.85;38.29
5753;BME280;2901;42.140;24.760;2022-10-22T13:27:54;99959.28;;;22.70;38.84
5753;BME280;2901;42.140;24.760;2022-10-22T13:30:24;99962.25;;;22.63;39.36
5753;BME280;2901;42.140;24.760;2022-10-22T13:32:55;99955.34;;;22.60;39.63
5753;BME280;2901;42.140;24.760;2022-10-22T13:35:25;99959.94;;;22.19;39.82
5753;BME280;2901;42.140;24.760;2022-10-22T13:37:51;99961.50;;;22.05;40.21
5753;BME280;2901;42.140;24.760;2022-10-22T13:40:17;99960.78;;;22.01;40.32
5753;BME280;2901;42.140;24.760;2022-10-22T13:42:42;99956.66;;;21.96;40.55
5753;BME280;2901;42.140;24.760;2022-10-22T13:45:08;99956.72;;;21.94;40.93
5753;BME280;2901;42.140;24.760;2022-10-22T13:47:33;99956.94;;;21.90;40.99
5753;BME280;2901;42.140;24.760;2022-10-22T13:50:02;99956.66;;;21.76;40.89
5753;BME280;2901;42.140;24.760;2022-10-22T13:52:50;99949.78;;;21.53;41.26
5753;BME280;2901;42.140;24.760;2022-10-22T13:55:28;99948.38;;;21.44;41.80
5753;BME280;2901;42.140;24.760;2022-10-22T13:58:09;99944.19;;;21.40;41.35
5753;BME280;2901;42.140;24.760;2022-10-22T14:00:37;99935.47;;;21.38;42.00
5753;BME280;2901;42.140;24.760;2022-10-22T14:03:03;99935.28;;;21.43;41.53
5753;BME280;2901;42.140;24.760;2022-10-22T14:05:29;99935.28;;;21.43;41.14
5753;BME280;2901;42.140;24.760;2022-10-22T14:07:58;99940.75;;;21.38;41.42
5753;BME280;2901;42.140;24.760;2022-10-22T14:10:24;99935.78;;;21.31;41.67
5753;BME280;2901;42.140;24.760;2022-10-22T14:12:50;99925.97;;;21.34;41.50
5753;BME280;2901;42.140;24.760;2022-10-22T14:15:18;99917.94;;;21.37;41.62
5753;BME280;2901;42.140;24.760;2022-10-22T14:17:46;99922.16;;;21.41;41.18
5753;BME280;2901;42.140;24.760;2022-10-22T14:20:22;99927.72;;;21.35;41.28
5753;BME280;2901;42.140;24.760;2022-10-22T14:22:48;99930.94;;;21.21;41.46
5753;BME280;2901;42.140;24.760;2022-10-22T14:25:18;99931.66;;;21.25;41.69
5753;BME280;2901;42.140;24.760;2022-10-22T14:27:44;99926.53;;;21.22;41.71
5753;BME280;2901;42.140;24.760;2022-10-22T14:30:18;99924.06;;;21.17;41.36
5753;BME280;2901;42.140;24.760;2022-10-22T14:32:45;99924.88;;;21.19;41.41
5753;BME280;2901;42.140;24.760;2022-10-22T14:35:13;99920.66;;;21.15;41.64
5753;BME280;2901;42.140;24.760;2022-10-22T14:37:39;99918.44;;;21.05;42.03
5753;BME280;2901;42.140;24.760;2022-10-22T14:40:05;99917.66;;;21.03;42.03
5753;BME280;2901;42.140;24.760;2022-10-22T14:42:38;99910.94;;;20.96;43.83
5753;BME280;2901;42.140;24.760;2022-10-22T14:45:05;99911.19;;;20.90;43.90
5753;BME280;2901;42.140;24.760;2022-10-22T14:47:30;99914.75;;;20.89;44.50
5753;BME280;2901;42.140;24.760;2022-10-22T14:49:56;99911.72;;;20.78;44.53
5753;BME280;2901;42.140;24.760;2022-10-22T14:52:21;99922.72;;;20.65;44.58
5753;BME280;2901;42.140;24.760;2022-10-22T14:54:47;99920.47;;;20.56;45.08
5753;BME280;2901;42.140;24.760;2022-10-22T14:57:13;99907.09;;;20.41;45.05